sensor_id;sensor_type;location;lat;lon;timestamp;temperature;humidity
3736;DHT22;1883;48.202;16.310;2023-03-16T00:17:10;3.00;66.00
3736;DHT22;1883;48.202;16.310;2023-03-16T00:19:44;2.90;65.90
3736;DHT22;1883;48.202;16.310;2023-03-16T00:24:48;2.90;65.90
3736;DHT22;1883;48.202;16.310;2023-03-16T00:27:15;2.90;65.90
3736;DHT22;1883;48.202;16.310;2023-03-16T00:29:44;2.90;65.90
3736;DHT22;1883;48.202;16.310;2023-03-16T00:32:14;2.90;65.90
3736;DHT22;1883;48.202;16.310;2023-03-16T00:34:42;2.90;65.90
3736;DHT22;1883;48.202;16.310;2023-03-16T00:50:09;2.70;65.80
3736;DHT22;1883;48.202;16.310;2023-03-16T01:31:30;2.30;65.40
3736;DHT22;1883;48.202;16.310;2023-03-16T01:33:58;2.30;65.40
3736;DHT22;1883;48.202;16.310;2023-03-16T01:36:28;2.30;65.40
3736;DHT22;1883;48.202;16.310;2023-03-16T01:38:56;2.30;65.40
3736;DHT22;1883;48.202;16.310;2023-03-16T01:41:23;2.30;65.40
3736;DHT22;1883;48.202;16.310;2023-03-16T01:43:50;2.30;65.40
3736;DHT22;1883;48.202;16.310;2023-03-16T01:46:20;2.20;65.30
3736;DHT22;1883;48.202;16.310;2023-03-16T01:49:05;2.20;65.30
3736;DHT22;1883;48.202;16.310;2023-03-16T01:54:13;2.20;65.30
3736;DHT22;1883;48.202;16.310;2023-03-16T01:56:46;2.10;65.20
3736;DHT22;1883;48.202;16.310;2023-03-16T01:59:17;2.10;65.10
3736;DHT22;1883;48.202;16.310;2023-03-16T02:01:47;2.00;65.10
3736;DHT22;1883;48.202;16.310;2023-03-16T02:04:44;2.00;65.10
3736;DHT22;1883;48.202;16.310;2023-03-16T02:07:13;2.00;65.10
3736;DHT22;1883;48.202;16.310;2023-03-16T02:09:45;2.00;65.10
3736;DHT22;1883;48.202;16.310;2023-03-16T02:12:14;2.00;65.10
3736;DHT22;1883;48.202;16.310;2023-03-16T02:14:44;1.90;65.10
3736;DHT22;1883;48.202;16.310;2023-03-16T02:17:11;1.90;65.10
3736;DHT22;1883;48.202;16.310;2023-03-16T02:22:16;1.90;65.00
3736;DHT22;1883;48.202;16.310;2023-03-16T02:27:23;1.90;65.00
3736;DHT22;1883;48.202;16.310;2023-03-16T02:37:40;1.70;64.80
3736;DHT22;1883;48.202;16.310;2023-03-16T02:40:20;1.70;64.70
3736;DHT22;1883;48.202;16.310;2023-03-16T02:42:53;1.70;64.70
3736;DHT22;1883;48.202;16.310;2023-03-16T02:45:21;1.70;64.80
3736;DHT22;1883;48.202;16.310;2023-03-16T02:47:51;1.70;64.70
3736;DHT22;1883;48.202;16.310;2023-03-16T02:50:19;1.60;64.70
3736;DHT22;1883;48.202;16.310;2023-03-16T02:52:48;1.60;64.60
3736;DHT22;1883;48.202;16.310;2023-03-16T02:55:15;1.60;64.60
3736;DHT22;1883;48.202;16.310;2023-03-16T02:57:42;1.60;64.60
3736;DHT22;1883;48.202;16.310;2023-03-16T03:00:10;1.60;64.50
3736;DHT22;1883;48.202;16.310;2023-03-16T03:02:41;1.50;64.50
3736;DHT22;1883;48.202;16.310;2023-03-16T03:05:08;1.60;64.50
3736;DHT22;1883;48.202;16.310;2023-03-16T03:20:34;1.50;64.30
3736;DHT22;1883;48.202;16.310;2023-03-16T03:23:01;1.40;64.30
3736;DHT22;1883;48.202;16.310;2023-03-16T03:25:30;1.40;64.20
3736;DHT22;1883;48.202;16.310;2023-03-16T03:27:59;1.40;64.20
3736;DHT22;1883;48.202;16.310;2023-03-16T03:30:27;1.40;64.20
3736;DHT22;1883;48.202;16.310;2023-03-16T03:32:54;1.40;64.10
3736;DHT22;1883;48.202;16.310;2023-03-16T03:37:58;1.40;64.10
3736;DHT22;1883;48.202;16.310;2023-03-16T03:40:25;1.40;64.10
3736;DHT22;1883;48.202;16.310;2023-03-16T03:42:53;1.30;64.10
3736;DHT22;1883;48.202;16.310;2023-03-16T03:45:20;1.40;64.10
3736;DHT22;1883;48.202;16.310;2023-03-16T03:47:47;1.30;64.00
3736;DHT22;1883;48.202;16.310;2023-03-16T03:50:14;1.30;64.00
3736;DHT22;1883;48.202;16.310;2023-03-16T03:52:41;1.30;64.00
3736;DHT22;1883;48.202;16.310;2023-03-16T03:55:09;1.30;63.90
3736;DHT22;1883;48.202;16.310;2023-03-16T03:57:36;1.30;63.80
3736;DHT22;1883;48.202;16.310;2023-03-16T04:00:05;1.30;63.80
3736;DHT22;1883;48.202;16.310;2023-03-16T04:02:36;1.30;63.70
3736;DHT22;1883;48.202;16.310;2023-03-16T04:10:15;1.20;63.70
3736;DHT22;1883;48.202;16.310;2023-03-16T04:12:42;1.20;63.60
3736;DHT22;1883;48.202;16.310;2023-03-16T04:15:10;1.20;63.50
3736;DHT22;1883;48.202;16.310;2023-03-16T04:17:38;1.20;63.50
3736;DHT22;1883;48.202;16.310;2023-03-16T04:20:06;1.20;63.50
3736;DHT22;1883;48.202;16.310;2023-03-16T04:22:39;1.20;63.50
3736;DHT22;1883;48.202;16.310;2023-03-16T04:25:07;1.10;63.40
3736;DHT22;1883;48.202;16.310;2023-03-16T04:27:36;1.10;63.20
3736;DHT22;1883;48.202;16.310;2023-03-16T04:30:05;1.20;63.40
3736;DHT22;1883;48.202;16.310;2023-03-16T04:32:41;1.10;63.40
3736;DHT22;1883;48.202;16.310;2023-03-16T04:35:09;1.10;63.30
3736;DHT22;1883;48.202;16.310;2023-03-16T04:37:36;1.10;63.20
3736;DHT22;1883;48.202;16.310;2023-03-16T04:40:03;1.00;63.10
3736;DHT22;1883;48.202;16.310;2023-03-16T04:42:37;1.10;63.10
3736;DHT22;1883;48.202;16.310;2023-03-16T04:45:05;1.10;63.10
3736;DHT22;1883;48.202;16.310;2023-03-16T04:47:33;1.10;63.00
3736;DHT22;1883;48.202;16.310;2023-03-16T04:50:02;1.00;63.00
3736;DHT22;1883;48.202;16.310;2023-03-16T04:52:30;1.00;63.00
3736;DHT22;1883;48.202;16.310;2023-03-16T04:54:58;1.00;62.90
3736;DHT22;1883;48.202;16.310;2023-03-16T04:57:25;1.00;63.00
3736;DHT22;1883;48.202;16.310;2023-03-16T04:59:53;1.00;62.90
